createdAt,value
2023-02-02T00:01:41.324Z,2.05
2023-02-02T00:04:16.152Z,1.90
2023-02-02T00:06:45.706Z,1.27
2023-02-02T00:09:16.582Z,1.63
2023-02-02T00:11:46.901Z,2.20
2023-02-02T00:14:16.071Z,1.70
2023-02-02T00:16:46.420Z,2.53
2023-02-02T00:19:17.550Z,2.00
2023-02-02T00:21:46.339Z,1.97
2023-02-02T00:24:20.351Z,1.43
2023-02-02T00:26:52.868Z,2.23
2023-02-02T00:29:24.869Z,1.50
2023-02-02T00:31:53.474Z,1.93
2023-02-02T00:34:22.307Z,1.60
2023-02-02T00:36:51.094Z,1.93
2023-02-02T00:39:26.222Z,1.50
2023-02-02T00:41:54.927Z,1.55
2023-02-02T00:44:42.582Z,1.70
2023-02-02T00:47:10.596Z,1.93
2023-02-02T00:49:38.395Z,1.83
2023-02-02T00:52:06.415Z,2.73
2023-02-02T00:54:34.391Z,1.63
2023-02-02T00:57:03.856Z,2.07
2023-02-02T00:59:33.602Z,1.60
2023-02-02T01:02:02.068Z,1.40
2023-02-02T01:04:30.273Z,1.80
2023-02-02T01:06:58.362Z,1.80
2023-02-02T01:09:26.194Z,1.57
2023-02-02T01:11:54.655Z,1.90
2023-02-02T01:14:22.493Z,1.67
2023-02-02T01:16:51.695Z,1.80
2023-02-02T01:19:19.819Z,1.87
2023-02-02T01:21:47.807Z,1.97
2023-02-02T01:24:15.596Z,1.90
2023-02-02T01:26:43.467Z,2.30
2023-02-02T01:29:12.117Z,2.07
2023-02-02T01:31:40.642Z,2.13
2023-02-02T01:34:09.848Z,2.57
2023-02-02T01:36:38.010Z,2.10
2023-02-02T01:39:05.867Z,2.27
2023-02-02T01:41:33.888Z,2.30
2023-02-02T01:44:04.644Z,2.27
2023-02-02T01:46:34.938Z,2.73
2023-02-02T01:49:08.098Z,3.30
2023-02-02T01:51:45.111Z,1.90
2023-02-02T01:54:23.120Z,3.43
2023-02-02T01:56:59.946Z,2.70
2023-02-02T01:59:31.402Z,3.13
2023-02-02T02:02:00.302Z,3.53
2023-02-02T02:04:32.148Z,4.07
2023-02-02T02:07:05.232Z,2.47
2023-02-02T02:09:34.492Z,2.20
2023-02-02T02:12:03.140Z,3.57
2023-02-02T02:14:49.629Z,4.33
2023-02-02T02:17:40.264Z,2.60
2023-02-02T02:20:58.790Z,3.07
2023-02-02T02:24:54.902Z,3.33
2023-02-02T02:28:15.977Z,2.87
2023-02-02T02:31:19.943Z,3.63
2023-02-02T02:33:59.737Z,3.20
2023-02-02T02:36:42.401Z,2.87
2023-02-02T02:39:18.662Z,3.33
2023-02-02T02:41:54.011Z,3.50
2023-02-02T02:44:22.848Z,3.63
2023-02-02T02:46:51.411Z,4.10
2023-02-02T02:49:21.861Z,3.20
2023-02-02T02:51:51.299Z,3.47
2023-02-02T02:54:28.264Z,3.60
2023-02-02T02:57:38.457Z,3.50
2023-02-02T03:00:24.102Z,3.40
2023-02-02T03:03:04.885Z,4.57
2023-02-02T03:05:52.569Z,2.77
2023-02-02T03:08:31.804Z,3.67
2023-02-02T03:11:02.447Z,3.63
2023-02-02T03:13:32.140Z,3.97
2023-02-02T03:16:00.555Z,4.10
2023-02-02T03:18:32.544Z,3.90
2023-02-02T03:21:01.822Z,4.23
2023-02-02T03:23:29.557Z,3.70
2023-02-02T03:25:57.421Z,3.90
2023-02-02T03:28:26.193Z,4.03
2023-02-02T03:30:57.371Z,4.37
2023-02-02T03:33:25.365Z,3.90
2023-02-02T03:35:53.664Z,4.30
2023-02-02T03:38:23.203Z,4.00
2023-02-02T03:40:51.907Z,3.87
2023-02-02T03:43:21.243Z,3.90
2023-02-02T03:45:56.416Z,3.50
2023-02-02T03:48:25.028Z,3.72
2023-02-02T03:50:53.258Z,4.47
2023-02-02T03:53:21.261Z,4.00
2023-02-02T03:55:50.601Z,4.30
2023-02-02T03:58:22.015Z,4.50
2023-02-02T04:00:50.037Z,4.20
2023-02-02T04:03:17.855Z,4.33
2023-02-02T04:05:50.062Z,4.30
2023-02-02T04:08:18.030Z,4.67
2023-02-02T04:10:45.924Z,7.50
2023-02-02T04:13:15.391Z,7.30
2023-02-02T04:15:43.181Z,7.03
2023-02-02T04:18:10.979Z,4.33
2023-02-02T04:20:38.845Z,6.83
2023-02-02T04:23:06.577Z,8.17
2023-02-02T04:25:34.438Z,7.20
2023-02-02T04:28:02.207Z,7.53
2023-02-02T04:30:31.440Z,6.40
2023-02-02T04:32:59.199Z,5.20
2023-02-02T04:35:27.312Z,5.67
2023-02-02T04:37:55.488Z,6.87
2023-02-02T04:40:23.832Z,6.13
2023-02-02T04:42:51.747Z,5.83
2023-02-02T04:45:19.742Z,5.77
2023-02-02T04:47:48.883Z,5.30
2023-02-02T04:50:17.073Z,7.40
2023-02-02T04:52:44.839Z,6.47
2023-02-02T04:55:12.981Z,6.67
2023-02-02T04:57:40.887Z,6.57
2023-02-02T05:00:13.846Z,6.73
2023-02-02T05:02:42.793Z,5.40
2023-02-02T05:05:14.706Z,6.73
2023-02-02T05:07:42.768Z,5.07
2023-02-02T05:10:11.841Z,5.90
2023-02-02T05:12:39.695Z,5.20
2023-02-02T05:15:09.527Z,6.93
2023-02-02T05:17:37.318Z,6.67
2023-02-02T05:20:06.119Z,6.33
2023-02-02T05:22:36.407Z,6.67
2023-02-02T05:25:06.780Z,6.50
2023-02-02T05:27:35.682Z,7.20
2023-02-02T05:30:05.241Z,6.70
2023-02-02T05:32:33.375Z,6.30
2023-02-02T05:35:01.371Z,5.03
2023-02-02T05:37:29.547Z,5.53
2023-02-02T05:39:59.070Z,5.67
2023-02-02T05:42:27.000Z,4.67
2023-02-02T05:47:39.741Z,4.93
2023-02-02T05:50:09.840Z,4.90
2023-02-02T05:52:41.319Z,5.47
2023-02-02T05:55:14.105Z,6.23
2023-02-02T05:57:42.084Z,5.97
2023-02-02T06:00:12.294Z,6.00
2023-02-02T06:02:40.550Z,7.27
2023-02-02T06:05:10.592Z,7.17
2023-02-02T06:07:38.781Z,8.10
2023-02-02T06:10:09.277Z,9.57
2023-02-02T06:12:38.925Z,8.47
2023-02-02T06:15:12.982Z,9.63
2023-02-02T06:17:41.049Z,9.37
2023-02-02T06:20:11.240Z,9.73
2023-02-02T06:22:39.261Z,9.73
2023-02-02T06:25:10.137Z,10.03
2023-02-02T06:28:07.888Z,10.13
2023-02-02T06:30:36.428Z,9.77
2023-02-02T06:33:19.492Z,9.73
2023-02-02T06:35:47.297Z,9.73
2023-02-02T06:38:15.202Z,10.53
2023-02-02T06:40:43.092Z,10.80
2023-02-02T06:43:14.960Z,11.53
2023-02-02T06:45:43.011Z,10.73
2023-02-02T06:48:11.306Z,11.43
2023-02-02T06:50:39.212Z,10.40
2023-02-02T06:53:07.157Z,11.23
2023-02-02T06:55:35.130Z,9.50
2023-02-02T06:58:06.161Z,11.27
2023-02-02T07:00:38.395Z,10.47
2023-02-02T07:03:06.438Z,10.20
2023-02-02T07:05:34.313Z,7.80
2023-02-02T07:08:02.264Z,5.90
2023-02-02T07:11:14.514Z,5.50
2023-02-02T07:13:18.378Z,5.27
2023-02-02T07:15:48.777Z,6.03
2023-02-02T07:18:16.874Z,6.20
2023-02-02T07:20:46.873Z,5.83
2023-02-02T07:23:15.000Z,6.10
2023-02-02T07:25:43.957Z,7.83
2023-02-02T07:28:11.943Z,7.63
2023-02-02T07:30:39.860Z,6.27
2023-02-02T07:33:09.331Z,4.40
2023-02-02T07:35:37.444Z,5.33
2023-02-02T07:38:05.510Z,5.33
2023-02-02T07:40:33.685Z,4.87
2023-02-02T07:43:02.637Z,5.53
2023-02-02T07:45:31.487Z,6.17
2023-02-02T07:48:00.806Z,5.53
2023-02-02T07:50:33.619Z,6.00
2023-02-02T07:53:01.689Z,5.80
2023-02-02T07:55:29.915Z,5.97
2023-02-02T07:57:59.056Z,6.40
2023-02-02T08:00:28.017Z,5.97
2023-02-02T08:02:59.529Z,7.03
2023-02-02T08:05:33.464Z,5.80
2023-02-02T08:08:01.608Z,6.97
2023-02-02T08:10:30.096Z,7.30
2023-02-02T08:12:58.257Z,7.33
2023-02-02T08:15:26.573Z,6.93
2023-02-02T08:17:56.267Z,7.37
2023-02-02T08:20:25.096Z,9.07
2023-02-02T08:22:56.804Z,9.30
2023-02-02T08:25:25.697Z,6.40
2023-02-02T08:27:55.878Z,7.90
2023-02-02T08:33:09.209Z,7.77
2023-02-02T08:35:46.368Z,9.40
2023-02-02T08:38:19.158Z,7.53
2023-02-02T08:40:47.815Z,7.37
2023-02-02T08:43:18.484Z,7.10
2023-02-02T08:46:02.591Z,7.33
2023-02-02T08:48:35.183Z,8.32
2023-02-02T08:51:05.681Z,7.23
2023-02-02T08:53:35.725Z,7.30
2023-02-02T08:56:07.511Z,8.43
2023-02-02T08:58:35.843Z,7.23
2023-02-02T09:01:06.787Z,7.30
2023-02-02T09:03:36.055Z,7.27
2023-02-02T09:06:06.725Z,7.90
2023-02-02T09:08:37.555Z,7.73
2023-02-02T09:11:09.224Z,7.33
2023-02-02T09:13:40.907Z,9.20
2023-02-02T09:16:11.497Z,11.47
2023-02-02T09:18:40.257Z,13.00
2023-02-02T09:21:11.383Z,11.30
2023-02-02T09:23:46.287Z,9.57
2023-02-02T09:26:20.388Z,11.27
2023-02-02T09:28:52.476Z,11.77
2023-02-02T09:31:21.509Z,12.07
2023-02-02T09:33:49.631Z,14.53
2023-02-02T09:36:20.710Z,17.70
2023-02-02T09:38:51.500Z,13.60
2023-02-02T09:42:09.294Z,13.57
2023-02-02T09:45:03.392Z,10.47
2023-02-02T09:47:55.912Z,10.97
2023-02-02T09:50:46.439Z,9.50
2023-02-02T09:53:46.099Z,10.00
2023-02-02T09:56:30.693Z,12.35
2023-02-02T09:59:18.762Z,9.60
2023-02-02T10:01:55.284Z,9.73
2023-02-02T10:07:01.388Z,9.93
2023-02-02T10:09:41.897Z,10.60
2023-02-02T10:12:35.818Z,11.37
2023-02-02T10:15:21.439Z,10.63
2023-02-02T10:17:58.445Z,8.45
2023-02-02T10:20:53.469Z,8.80
2023-02-02T10:23:30.797Z,7.43
2023-02-02T10:26:17.464Z,8.67
2023-02-02T10:29:11.683Z,9.13
2023-02-02T10:31:55.320Z,8.07
2023-02-02T10:37:35.019Z,10.37
2023-02-02T10:40:31.103Z,9.90
2023-02-02T10:43:48.389Z,8.50
2023-02-02T10:46:26.744Z,8.67
2023-02-02T10:49:17.832Z,8.00
2023-02-02T10:52:40.365Z,7.40
2023-02-02T10:55:38.975Z,7.17
2023-02-02T10:58:41.434Z,7.60
2023-02-02T11:01:34.641Z,7.23
2023-02-02T11:04:23.870Z,6.77
2023-02-02T11:06:57.052Z,6.90
2023-02-02T11:09:44.057Z,5.60
2023-02-02T11:12:28.459Z,6.87
2023-02-02T11:15:14.527Z,9.10
2023-02-02T11:17:48.361Z,7.03
2023-02-02T11:20:45.777Z,5.60
2023-02-02T11:28:58.684Z,5.97
2023-02-02T11:31:47.260Z,7.00
2023-02-02T11:34:42.083Z,6.30
2023-02-02T11:37:27.233Z,6.03
2023-02-02T11:40:22.845Z,6.43
2023-02-02T11:42:52.983Z,6.10
2023-02-02T11:45:37.392Z,5.90
2023-02-02T11:48:16.104Z,5.83
2023-02-02T11:50:58.648Z,7.40
2023-02-02T11:53:35.242Z,9.63
2023-02-02T11:56:21.398Z,7.17
2023-02-02T11:58:53.687Z,8.93
2023-02-02T12:01:27.198Z,8.30
2023-02-02T12:04:02.008Z,7.87
2023-02-02T12:06:41.851Z,7.53
2023-02-02T12:09:14.626Z,8.93
2023-02-02T12:12:04.006Z,8.33
2023-02-02T12:14:48.030Z,10.13
2023-02-02T12:17:40.750Z,9.97
2023-02-02T12:20:32.597Z,10.33
2023-02-02T12:23:27.332Z,8.70
2023-02-02T12:26:19.433Z,7.93
2023-02-02T12:29:11.878Z,8.37
2023-02-02T12:32:09.650Z,7.47
2023-02-02T12:34:59.400Z,7.80
2023-02-02T12:37:45.415Z,9.43
2023-02-02T12:40:38.524Z,9.60
2023-02-02T12:43:24.123Z,7.20
2023-02-02T12:46:13.215Z,7.97
2023-02-02T12:49:02.025Z,7.63
2023-02-02T12:51:53.584Z,9.47
2023-02-02T12:54:56.761Z,8.37
2023-02-02T12:57:50.988Z,10.00
2023-02-02T13:01:06.669Z,8.70
2023-02-02T13:03:55.790Z,8.68
2023-02-02T13:07:05.421Z,9.43
2023-02-02T13:09:45.452Z,10.00
2023-02-02T13:12:22.487Z,9.67
2023-02-02T13:15:00.192Z,9.70
2023-02-02T13:17:37.492Z,10.70
2023-02-02T13:20:21.442Z,9.40
2023-02-02T13:22:58.485Z,9.37
2023-02-02T13:28:07.938Z,8.07
2023-02-02T13:30:39.776Z,8.38
2023-02-02T13:33:18.451Z,8.80
2023-02-02T13:35:54.923Z,7.87
2023-02-02T13:38:26.138Z,6.50
2023-02-02T13:40:59.929Z,7.40
2023-02-02T13:43:40.457Z,6.00
2023-02-02T13:46:35.342Z,7.17
2023-02-02T13:49:13.063Z,7.47
2023-02-02T13:51:53.885Z,7.27
2023-02-02T13:55:18.963Z,8.37
2023-02-02T13:58:27.131Z,7.13
2023-02-02T14:01:01.934Z,8.70
2023-02-02T14:06:27.852Z,9.40
2023-02-02T14:09:34.299Z,10.80
2023-02-02T14:12:27.830Z,10.93
2023-02-02T14:14:57.401Z,15.20
2023-02-02T14:17:54.234Z,12.63
2023-02-02T14:20:50.930Z,17.00
2023-02-02T14:26:42.349Z,17.43
2023-02-02T14:32:42.612Z,24.17
2023-02-02T14:36:03.125Z,65.87
2023-02-02T14:39:04.281Z,38.80
2023-02-02T14:42:22.010Z,16.50
2023-02-02T14:45:23.837Z,10.13
2023-02-02T14:48:02.767Z,11.00
2023-02-02T14:50:47.445Z,10.87
2023-02-02T14:53:25.573Z,10.00
2023-02-02T14:56:00.464Z,10.57
2023-02-02T14:58:39.253Z,9.48
2023-02-02T15:01:36.256Z,8.50
2023-02-02T15:04:26.115Z,8.43
2023-02-02T15:07:21.400Z,8.50
2023-02-02T15:10:00.565Z,7.10
2023-02-02T15:12:58.268Z,8.00
2023-02-02T15:15:31.183Z,8.37
2023-02-02T15:21:05.031Z,7.83
2023-02-02T15:26:36.006Z,7.80
2023-02-02T15:29:22.547Z,8.65
2023-02-02T15:34:45.848Z,8.03
2023-02-02T15:37:20.822Z,6.70
2023-02-02T15:39:55.770Z,8.53
2023-02-02T15:42:53.833Z,10.02
2023-02-02T15:45:38.115Z,9.40
2023-02-02T15:48:19.794Z,8.40
2023-02-02T15:50:56.699Z,10.03
2023-02-02T15:53:28.765Z,9.83
2023-02-02T15:55:59.231Z,10.67
2023-02-02T15:58:32.321Z,10.70
2023-02-02T16:01:22.978Z,10.37
2023-02-02T16:04:08.587Z,10.63
2023-02-02T16:06:37.133Z,11.18
2023-02-02T16:09:07.648Z,11.13
2023-02-02T16:11:42.558Z,11.73
2023-02-02T16:14:18.894Z,11.47
2023-02-02T16:16:51.858Z,9.70
2023-02-02T16:19:24.950Z,11.73
2023-02-02T16:24:44.965Z,12.50
2023-02-02T16:27:20.191Z,12.07
2023-02-02T16:29:50.869Z,11.52
2023-02-02T16:32:31.568Z,12.37
2023-02-02T16:35:03.656Z,13.60
2023-02-02T16:37:36.325Z,13.97
2023-02-02T16:40:26.323Z,13.27
2023-02-02T16:43:05.484Z,12.93
2023-02-02T16:45:46.691Z,12.07
2023-02-02T16:48:32.143Z,13.13
2023-02-02T16:51:24.699Z,14.63
2023-02-02T16:54:01.981Z,14.40
2023-02-02T16:56:34.776Z,14.90
2023-02-02T16:59:15.163Z,13.37
2023-02-02T17:01:52.815Z,15.93
2023-02-02T17:04:26.519Z,14.33
2023-02-02T17:06:58.463Z,15.20
2023-02-02T17:09:34.767Z,16.20
2023-02-02T17:12:33.363Z,17.50
2023-02-02T17:15:29.351Z,15.27
2023-02-02T17:17:59.198Z,18.03
2023-02-02T17:20:37.828Z,18.50
2023-02-02T17:23:15.471Z,18.20
2023-02-02T17:25:45.604Z,17.33
2023-02-02T17:28:21.699Z,18.27
2023-02-02T17:31:00.321Z,18.67
2023-02-02T17:33:36.293Z,16.77
2023-02-02T17:36:06.027Z,17.58
2023-02-02T17:38:39.549Z,17.53
2023-02-02T17:41:10.711Z,18.97
2023-02-02T17:43:38.636Z,18.10
2023-02-02T17:52:46.779Z,31.45
2023-02-02T17:55:23.624Z,21.57
2023-02-02T17:57:53.751Z,17.67
2023-02-02T18:00:29.333Z,19.77
2023-02-02T18:03:08.977Z,19.73
2023-02-02T18:05:41.321Z,18.03
2023-02-02T18:08:14.055Z,18.60
2023-02-02T18:10:52.435Z,19.00
2023-02-02T18:13:23.964Z,19.60
2023-02-02T18:15:55.238Z,15.37
2023-02-02T18:18:24.665Z,14.37
2023-02-02T18:20:52.680Z,15.63
2023-02-02T18:23:26.354Z,17.20
2023-02-02T18:25:55.533Z,14.50
2023-02-02T18:28:24.785Z,16.73
2023-02-02T18:30:52.821Z,16.73
2023-02-02T18:33:23.429Z,13.27
2023-02-02T18:35:51.481Z,13.00
2023-02-02T18:38:35.302Z,13.00
2023-02-02T18:41:28.343Z,10.73
2023-02-02T18:43:56.351Z,11.03
2023-02-02T18:46:26.340Z,11.63
2023-02-02T18:48:57.694Z,11.10
2023-02-02T18:51:28.081Z,12.20
2023-02-02T18:54:00.264Z,12.70
2023-02-02T18:56:31.766Z,11.33
2023-02-02T18:59:08.469Z,13.80
2023-02-02T19:01:36.705Z,15.57
2023-02-02T19:04:05.283Z,15.03
2023-02-02T19:07:34.010Z,18.90
2023-02-02T19:10:02.285Z,18.63
2023-02-02T19:12:47.735Z,19.63
2023-02-02T19:18:23.884Z,21.13
2023-02-02T19:21:13.783Z,18.70
2023-02-02T19:23:46.807Z,24.37
2023-02-02T19:26:23.973Z,20.80
2023-02-02T19:28:57.127Z,26.73
2023-02-02T19:31:25.221Z,23.23
2023-02-02T19:33:54.864Z,25.80
2023-02-02T19:36:41.379Z,26.50
2023-02-02T19:39:15.939Z,25.30
2023-02-02T19:41:44.552Z,26.87
2023-02-02T19:44:19.571Z,27.50
2023-02-02T19:46:55.942Z,28.43
2023-02-02T19:49:33.216Z,29.00
2023-02-02T19:52:22.692Z,24.93
2023-02-02T19:54:54.494Z,27.20
2023-02-02T19:57:38.504Z,29.17
2023-02-02T20:00:20.826Z,24.03
2023-02-02T20:03:02.355Z,29.97
2023-02-02T20:05:38.348Z,28.67
2023-02-02T20:08:23.064Z,30.53
2023-02-02T20:10:54.335Z,31.67
2023-02-02T20:13:34.453Z,30.63
2023-02-02T20:16:04.800Z,30.23
2023-02-02T20:18:42.512Z,33.83
2023-02-02T20:21:31.934Z,31.30
2023-02-02T20:24:00.708Z,32.60
2023-02-02T20:26:38.390Z,30.10
2023-02-02T20:29:17.808Z,32.30
2023-02-02T20:31:50.602Z,33.80
2023-02-02T20:34:27.232Z,32.83
2023-02-02T20:37:01.479Z,30.93
2023-02-02T20:39:35.245Z,33.93
2023-02-02T20:42:06.284Z,32.27
2023-02-02T20:44:35.382Z,34.33
2023-02-02T20:47:04.589Z,29.83
2023-02-02T20:49:33.128Z,34.30
2023-02-02T20:52:08.684Z,35.13
2023-02-02T20:57:06.709Z,30.73
2023-02-02T20:59:34.657Z,31.83
2023-02-02T21:02:03.543Z,28.93
2023-02-02T21:04:35.028Z,33.60
2023-02-02T21:07:06.266Z,34.83
2023-02-02T21:09:34.156Z,28.47
2023-02-02T21:12:02.938Z,30.03
2023-02-02T21:14:32.917Z,29.27
2023-02-02T21:17:14.431Z,28.70
2023-02-02T21:19:43.951Z,27.23
2023-02-02T21:22:13.687Z,26.57
2023-02-02T21:24:42.690Z,30.53
2023-02-02T21:27:11.123Z,29.27
2023-02-02T21:29:39.172Z,29.40
2023-02-02T21:32:07.175Z,29.43
2023-02-02T21:34:37.978Z,25.40
2023-02-02T21:37:14.599Z,28.87
2023-02-02T21:39:49.495Z,27.87
2023-02-02T21:42:22.313Z,25.95
2023-02-02T21:44:59.696Z,27.50
2023-02-02T21:47:35.016Z,28.90
2023-02-02T21:50:17.675Z,24.70
2023-02-02T21:52:50.795Z,24.67
2023-02-02T21:55:36.743Z,29.20
2023-02-02T21:58:20.171Z,23.17
2023-02-02T22:00:50.121Z,26.63
2023-02-02T22:03:32.156Z,23.10
2023-02-02T22:06:24.438Z,26.37
2023-02-02T22:09:03.975Z,23.60
2023-02-02T22:11:44.406Z,25.17
2023-02-02T22:14:25.269Z,20.23
2023-02-02T22:16:59.862Z,22.83
2023-02-02T22:19:34.829Z,21.63
2023-02-02T22:22:17.316Z,20.70
2023-02-02T22:24:56.748Z,21.83
2023-02-02T22:27:36.374Z,20.67
2023-02-02T22:30:40.140Z,19.30
2023-02-02T22:33:13.044Z,20.30
2023-02-02T22:35:43.868Z,18.43
2023-02-02T22:38:22.751Z,19.77
2023-02-02T22:41:00.932Z,16.07
2023-02-02T22:43:30.595Z,16.30
2023-02-02T22:45:59.348Z,17.23
2023-02-02T22:48:37.952Z,17.73
2023-02-02T22:51:08.212Z,12.60
2023-02-02T22:56:21.584Z,12.23
2023-02-02T22:58:49.637Z,13.60
2023-02-02T23:01:17.481Z,13.07
2023-02-02T23:03:47.084Z,14.17
2023-02-02T23:06:15.133Z,12.07
2023-02-02T23:08:44.239Z,12.70
2023-02-02T23:11:17.064Z,13.03
2023-02-02T23:13:49.879Z,13.10
2023-02-02T23:16:17.848Z,11.43
2023-02-02T23:18:47.825Z,12.83
2023-02-02T23:21:16.143Z,11.47
2023-02-02T23:23:44.086Z,11.97
2023-02-02T23:26:11.977Z,12.37
2023-02-02T23:28:39.951Z,13.93
2023-02-02T23:31:09.697Z,12.83
2023-02-02T23:33:38.514Z,11.53
2023-02-02T23:36:07.903Z,13.30
2023-02-02T23:38:36.708Z,12.03
2023-02-02T23:41:05.013Z,13.07
2023-02-02T23:43:33.026Z,10.43
2023-02-02T23:46:00.824Z,12.23
2023-02-02T23:48:30.207Z,14.37
2023-02-02T23:50:59.498Z,12.50
2023-02-02T23:53:28.262Z,12.20
2023-02-02T23:55:56.276Z,12.90
2023-02-02T23:58:24.126Z,11.30
